KEED/EED METAR and TAF weather

Enter ICAO airport designator
Station Type Date Time Source
KEED METAR 2019/06/17 12:56 UTC NOAA

KEED 171256Z AUTO 00000KT 10SM CLR 28/10 A2974 RMK AO2 SLP034 T02830100 $


Station Type Date Time Source
KEED Decoded METAR 2019/06/17 12:56 UTC NOAA

NEEDLES AIRPORT, CA, United States (KEED) 34-46N 114-37W
Jun 17, 2019 - 08:56 AM EDT / 2019.06.17 1256 UTC
Wind: Calm:0
Visibility: 10 mile(s):0
Sky conditions: clear
Temperature: 82.9 F (28.3 C)
Dew Point: 50.0 F (10.0 C)
Relative Humidity: 31%
Pressure (altimeter): 29.74 in. Hg (1007 hPa)
ob: KEED 171256Z AUTO 00000KT 10SM CLR 28/10 A2974 RMK AO2 SLP034 T02830100
cycle: 13

Station Type Date Time Source
KEED TAF 2019/06/17 12:24 UTC NOAA

TAF KEED 171120Z 1712/1812 VRB05KT P6SM FEW250
FM171800 19011G19KT P6SM FEW120 FEW250
FM180200 23010KT P6SM FEW250

Example: see airport list